モントリオール/トルドー の空港の天気 - METARとTAF

モントリオール・ピエール・エリオット・トルドー国際空港 ( CYUL / YUL ) - カナダ ケベック州モントリオール
飛行場実況気象(Metar)
観測時間01/21 12:00 EST (01/21 17:00 UTC)
風向・風速北北東 3m/s
視程10km以上
天気現象
全天を覆う雲 雲底高度 1010m
気温-2℃
湿度64%
気圧1021.1hPa
METARCYUL 211700Z 03005KT 15SM OVC033 M02/M08 A3014 RMK SC8 SLP211
過去の天気等 Google飛行場航空写真 Wunderground天気予報

過去48時間のMETAR

飛行場予報(TAF)
発表時間: 1/21 12:38 EST (1/21 17:38 UTC)
予報対象時間: 21日13時 EST ~ 22日13時 EST
風向・風速北東 3m/s
視程10km以上
全天の8割程度の雲 雲底高度 910m
21日13時 EST ~ 21日15時 EST に一時的に
視程10km以上
天気現象弱い雪
全天の8割程度の雲 雲底高度 610m
21日16時 EST から
風向・風速東 3m/s
視程10km以上
全天を覆う雲 雲底高度 760m
21日16時 EST ~ 21日22時 EST に一時的に
視程4,830m
天気現象弱い雪
全天を覆う雲 雲底高度 460m
21日22時 EST から
風向・風速北東 3m/s
視程6,440m
天気現象弱い雪
全天を覆う雲 雲底高度 610m
21日22時 EST ~ 22日6時 EST に一時的に
視程1,610m
天気現象弱い雪
全天を覆う雲 雲底高度 270m
22日6時 EST から
風向・風速北東 5m/s 瞬間風速 10m/s
視程10km以上
天気現象弱い雪
全天を覆う雲 雲底高度 760m
22日6時 EST ~ 22日13時 EST に一時的に
視程4,830m
天気現象弱い雪
全天を覆う雲 雲底高度 610m
TAF CYUL 211738Z 2118/2218 04005KT P6SM BKN030
TEMPO 2118/2120 P6SM -SN BKN020
FM212100 08005KT P6SM OVC025
TEMPO 2121/2203 3SM -SN OVC015
FM220300 05005KT 4SM -SN OVC020
TEMPO 2203/2211 1SM -SN OVC009
FM221100 05010G20KT P6SM -SN OVC025
TEMPO 2211/2218 3SM -SN OVC020 RMK NXT FCST BY 212100Z